sensor_id;sensor_type;location;lat;lon;timestamp;P1;durP1;ratioP1;P2;durP2;ratioP2
11046;SDS011;5576;50.008;10.596;2022-08-25T00:04:24;7.43;;;6.38;;
11046;SDS011;5576;50.008;10.596;2022-08-25T00:06:51;7.55;;;6.75;;
11046;SDS011;5576;50.008;10.596;2022-08-25T00:09:20;7.65;;;6.95;;
11046;SDS011;5576;50.008;10.596;2022-08-25T00:11:49;7.67;;;6.77;;
11046;SDS011;5576;50.008;10.596;2022-08-25T00:14:18;8.32;;;7.40;;
11046;SDS011;5576;50.008;10.596;2022-08-25T00:16:46;9.32;;;7.00;;
11046;SDS011;5576;50.008;10.596;2022-08-25T00:19:14;8.67;;;7.77;;
11046;SDS011;5576;50.008;10.596;2022-08-25T00:21:44;8.73;;;7.55;;
11046;SDS011;5576;50.008;10.596;2022-08-25T00:24:11;10.50;;;7.40;;
11046;SDS011;5576;50.008;10.596;2022-08-25T00:26:40;8.50;;;7.47;;
11046;SDS011;5576;50.008;10.596;2022-08-25T00:29:08;8.40;;;7.55;;
11046;SDS011;5576;50.008;10.596;2022-08-25T00:31:34;8.98;;;7.35;;
11046;SDS011;5576;50.008;10.596;2022-08-25T00:34:00;8.40;;;7.57;;
11046;SDS011;5576;50.008;10.596;2022-08-25T00:36:26;8.57;;;7.68;;
11046;SDS011;5576;50.008;10.596;2022-08-25T00:38:53;8.63;;;7.17;;
11046;SDS011;5576;50.008;10.596;2022-08-25T00:41:19;8.68;;;7.50;;
11046;SDS011;5576;50.008;10.596;2022-08-25T00:43:49;8.80;;;7.55;;
11046;SDS011;5576;50.008;10.596;2022-08-25T00:46:19;8.25;;;7.45;;
11046;SDS011;5576;50.008;10.596;2022-08-25T00:48:52;8.13;;;7.32;;
11046;SDS011;5576;50.008;10.596;2022-08-25T00:51:27;7.90;;;7.10;;
11046;SDS011;5576;50.008;10.596;2022-08-25T00:54:13;8.55;;;7.50;;
11046;SDS011;5576;50.008;10.596;2022-08-25T00:56:43;9.52;;;7.60;;
11046;SDS011;5576;50.008;10.596;2022-08-25T00:59:09;9.53;;;7.60;;
11046;SDS011;5576;50.008;10.596;2022-08-25T01:01:35;8.52;;;7.68;;
11046;SDS011;5576;50.008;10.596;2022-08-25T01:04:01;8.13;;;7.32;;
11046;SDS011;5576;50.008;10.596;2022-08-25T01:06:27;8.18;;;7.30;;
11046;SDS011;5576;50.008;10.596;2022-08-25T01:08:56;8.70;;;7.80;;
11046;SDS011;5576;50.008;10.596;2022-08-25T01:11:22;8.38;;;7.50;;
11046;SDS011;5576;50.008;10.596;2022-08-25T01:13:51;8.88;;;7.97;;
11046;SDS011;5576;50.008;10.596;2022-08-25T01:16:19;8.68;;;7.78;;
11046;SDS011;5576;50.008;10.596;2022-08-25T01:18:53;9.93;;;7.80;;
11046;SDS011;5576;50.008;10.596;2022-08-25T01:21:22;8.77;;;7.88;;
11046;SDS011;5576;50.008;10.596;2022-08-25T01:23:50;10.30;;;8.10;;
11046;SDS011;5576;50.008;10.596;2022-08-25T01:28:46;8.93;;;8.00;;
11046;SDS011;5576;50.008;10.596;2022-08-25T01:31:34;8.38;;;7.55;;
11046;SDS011;5576;50.008;10.596;2022-08-25T01:34:02;8.70;;;7.80;;
11046;SDS011;5576;50.008;10.596;2022-08-25T01:36:29;9.23;;;8.20;;
11046;SDS011;5576;50.008;10.596;2022-08-25T01:38:55;8.98;;;8.07;;
11046;SDS011;5576;50.008;10.596;2022-08-25T01:41:26;9.95;;;8.05;;
11046;SDS011;5576;50.008;10.596;2022-08-25T01:43:56;9.48;;;8.10;;
11046;SDS011;5576;50.008;10.596;2022-08-25T01:46:22;9.03;;;7.90;;
11046;SDS011;5576;50.008;10.596;2022-08-25T01:48:48;9.70;;;7.93;;
11046;SDS011;5576;50.008;10.596;2022-08-25T01:51:14;9.18;;;8.15;;
11046;SDS011;5576;50.008;10.596;2022-08-25T01:53:43;8.50;;;7.70;;
11046;SDS011;5576;50.008;10.596;2022-08-25T01:56:09;9.13;;;8.17;;
11046;SDS011;5576;50.008;10.596;2022-08-25T01:58:39;9.52;;;7.90;;
11046;SDS011;5576;50.008;10.596;2022-08-25T02:01:08;9.18;;;8.13;;
11046;SDS011;5576;50.008;10.596;2022-08-25T02:03:37;9.48;;;8.25;;
11046;SDS011;5576;50.008;10.596;2022-08-25T02:06:05;9.57;;;8.57;;
11046;SDS011;5576;50.008;10.596;2022-08-25T02:08:31;10.60;;;8.50;;
11046;SDS011;5576;50.008;10.596;2022-08-25T02:10:58;9.10;;;8.05;;
11046;SDS011;5576;50.008;10.596;2022-08-25T02:13:24;9.00;;;8.05;;
11046;SDS011;5576;50.008;10.596;2022-08-25T02:15:51;9.53;;;8.57;;
11046;SDS011;5576;50.008;10.596;2022-08-25T02:18:20;9.65;;;8.65;;
11046;SDS011;5576;50.008;10.596;2022-08-25T02:20:46;9.20;;;8.30;;
11046;SDS011;5576;50.008;10.596;2022-08-25T02:23:12;9.10;;;8.13;;
11046;SDS011;5576;50.008;10.596;2022-08-25T02:25:38;9.45;;;8.45;;
11046;SDS011;5576;50.008;10.596;2022-08-25T02:28:05;10.35;;;8.80;;
11046;SDS011;5576;50.008;10.596;2022-08-25T02:30:32;9.57;;;8.67;;
11046;SDS011;5576;50.008;10.596;2022-08-25T02:32:59;9.80;;;8.80;;
11046;SDS011;5576;50.008;10.596;2022-08-25T02:35:24;9.50;;;8.50;;
11046;SDS011;5576;50.008;10.596;2022-08-25T02:37:51;9.32;;;8.48;;
11046;SDS011;5576;50.008;10.596;2022-08-25T02:40:17;10.00;;;9.00;;
11046;SDS011;5576;50.008;10.596;2022-08-25T02:42:45;9.90;;;8.90;;
11046;SDS011;5576;50.008;10.596;2022-08-25T02:45:14;11.35;;;8.93;;
11046;SDS011;5576;50.008;10.596;2022-08-25T02:47:40;10.20;;;8.63;;
11046;SDS011;5576;50.008;10.596;2022-08-25T02:50:06;9.45;;;8.35;;
11046;SDS011;5576;50.008;10.596;2022-08-25T02:52:33;9.93;;;8.90;;
11046;SDS011;5576;50.008;10.596;2022-08-25T02:54:59;9.73;;;8.75;;
11046;SDS011;5576;50.008;10.596;2022-08-25T02:57:28;9.00;;;8.07;;
11046;SDS011;5576;50.008;10.596;2022-08-25T02:59:55;11.45;;;8.90;;
11046;SDS011;5576;50.008;10.596;2022-08-25T03:02:22;9.20;;;8.30;;
11046;SDS011;5576;50.008;10.596;2022-08-25T03:04:48;9.43;;;8.43;;
11046;SDS011;5576;50.008;10.596;2022-08-25T03:07:16;10.52;;;9.43;;
11046;SDS011;5576;50.008;10.596;2022-08-25T03:09:43;9.98;;;8.98;;
11046;SDS011;5576;50.008;10.596;2022-08-25T03:12:09;10.10;;;9.10;;
11046;SDS011;5576;50.008;10.596;2022-08-25T03:14:36;9.80;;;8.80;;
11046;SDS011;5576;50.008;10.596;2022-08-25T03:17:03;10.55;;;9.48;;
11046;SDS011;5576;50.008;10.596;2022-08-25T03:19:30;10.25;;;9.20;;
11046;SDS011;5576;50.008;10.596;2022-08-25T03:21:55;10.47;;;9.40;;
11046;SDS011;5576;50.008;10.596;2022-08-25T03:24:22;10.50;;;9.38;;
11046;SDS011;5576;50.008;10.596;2022-08-25T03:26:48;10.70;;;9.70;;
11046;SDS011;5576;50.008;10.596;2022-08-25T03:29:22;10.60;;;9.50;;
11046;SDS011;5576;50.008;10.596;2022-08-25T03:31:50;10.50;;;9.40;;
11046;SDS011;5576;50.008;10.596;2022-08-25T03:34:19;11.77;;;10.18;;
11046;SDS011;5576;50.008;10.596;2022-08-25T03:36:46;11.43;;;10.07;;
11046;SDS011;5576;50.008;10.596;2022-08-25T03:39:14;11.30;;;10.07;;
11046;SDS011;5576;50.008;10.596;2022-08-25T03:41:41;10.85;;;9.75;;
11046;SDS011;5576;50.008;10.596;2022-08-25T03:44:07;10.77;;;9.68;;
11046;SDS011;5576;50.008;10.596;2022-08-25T03:46:37;10.55;;;9.45;;
11046;SDS011;5576;50.008;10.596;2022-08-25T03:49:05;9.70;;;8.70;;
11046;SDS011;5576;50.008;10.596;2022-08-25T03:51:35;10.05;;;8.60;;
11046;SDS011;5576;50.008;10.596;2022-08-25T03:54:06;9.90;;;8.57;;
11046;SDS011;5576;50.008;10.596;2022-08-25T03:56:34;9.80;;;8.80;;
11046;SDS011;5576;50.008;10.596;2022-08-25T03:59:00;9.55;;;8.50;;
11046;SDS011;5576;50.008;10.596;2022-08-25T04:01:26;10.80;;;9.13;;
11046;SDS011;5576;50.008;10.596;2022-08-25T04:03:51;10.10;;;9.00;;
11046;SDS011;5576;50.008;10.596;2022-08-25T04:06:17;10.10;;;9.00;;
11046;SDS011;5576;50.008;10.596;2022-08-25T04:08:44;10.17;;;9.07;;
11046;SDS011;5576;50.008;10.596;2022-08-25T04:11:11;9.40;;;8.50;;
11046;SDS011;5576;50.008;10.596;2022-08-25T04:13:40;9.90;;;8.90;;
11046;SDS011;5576;50.008;10.596;2022-08-25T04:16:09;10.23;;;8.77;;
11046;SDS011;5576;50.008;10.596;2022-08-25T04:18:37;9.55;;;8.55;;
11046;SDS011;5576;50.008;10.596;2022-08-25T04:21:03;9.83;;;8.80;;
11046;SDS011;5576;50.008;10.596;2022-08-25T04:23:31;9.90;;;8.98;;
11046;SDS011;5576;50.008;10.596;2022-08-25T04:25:57;9.82;;;8.82;;
11046;SDS011;5576;50.008;10.596;2022-08-25T04:28:22;10.40;;;9.30;;
11046;SDS011;5576;50.008;10.596;2022-08-25T04:30:48;10.63;;;9.52;;
11046;SDS011;5576;50.008;10.596;2022-08-25T04:33:14;10.07;;;9.10;;
11046;SDS011;5576;50.008;10.596;2022-08-25T04:35:39;11.60;;;9.18;;
11046;SDS011;5576;50.008;10.596;2022-08-25T04:38:10;10.23;;;8.75;;
11046;SDS011;5576;50.008;10.596;2022-08-25T04:40:36;10.37;;;9.27;;
11046;SDS011;5576;50.008;10.596;2022-08-25T04:43:01;10.25;;;9.15;;
11046;SDS011;5576;50.008;10.596;2022-08-25T04:45:27;10.00;;;9.00;;
11046;SDS011;5576;50.008;10.596;2022-08-25T04:47:53;10.05;;;9.05;;
11046;SDS011;5576;50.008;10.596;2022-08-25T04:50:20;9.88;;;8.88;;
11046;SDS011;5576;50.008;10.596;2022-08-25T04:52:46;10.30;;;9.30;;
11046;SDS011;5576;50.008;10.596;2022-08-25T04:55:13;10.30;;;9.20;;
11046;SDS011;5576;50.008;10.596;2022-08-25T04:57:39;10.47;;;9.37;;
11046;SDS011;5576;50.008;10.596;2022-08-25T05:00:04;9.98;;;8.98;;
11046;SDS011;5576;50.008;10.596;2022-08-25T05:02:31;10.38;;;9.40;;
11046;SDS011;5576;50.008;10.596;2022-08-25T05:04:57;10.43;;;9.32;;
11046;SDS011;5576;50.008;10.596;2022-08-25T05:07:22;10.53;;;9.43;;
11046;SDS011;5576;50.008;10.596;2022-08-25T05:09:48;10.67;;;9.57;;
11046;SDS011;5576;50.008;10.596;2022-08-25T05:12:14;10.10;;;9.07;;
11046;SDS011;5576;50.008;10.596;2022-08-25T05:14:39;10.30;;;9.20;;
11046;SDS011;5576;50.008;10.596;2022-08-25T05:17:05;10.80;;;9.70;;
11046;SDS011;5576;50.008;10.596;2022-08-25T05:19:31;10.77;;;9.47;;
11046;SDS011;5576;50.008;10.596;2022-08-25T05:21:57;11.88;;;10.25;;
11046;SDS011;5576;50.008;10.596;2022-08-25T05:24:22;12.43;;;10.87;;
11046;SDS011;5576;50.008;10.596;2022-08-25T05:26:48;14.25;;;11.07;;
11046;SDS011;5576;50.008;10.596;2022-08-25T05:29:14;12.43;;;11.13;;
11046;SDS011;5576;50.008;10.596;2022-08-25T05:31:40;12.93;;;10.88;;
11046;SDS011;5576;50.008;10.596;2022-08-25T05:34:07;12.57;;;11.25;;
11046;SDS011;5576;50.008;10.596;2022-08-25T05:36:33;13.97;;;11.80;;
11046;SDS011;5576;50.008;10.596;2022-08-25T05:38:59;13.47;;;11.50;;
11046;SDS011;5576;50.008;10.596;2022-08-25T05:41:27;13.48;;;12.05;;
11046;SDS011;5576;50.008;10.596;2022-08-25T05:43:54;12.70;;;11.40;;
11046;SDS011;5576;50.008;10.596;2022-08-25T05:46:21;13.50;;;12.10;;
11046;SDS011;5576;50.008;10.596;2022-08-25T05:48:48;13.18;;;11.77;;
11046;SDS011;5576;50.008;10.596;2022-08-25T05:51:14;13.90;;;12.40;;
11046;SDS011;5576;50.008;10.596;2022-08-25T05:53:41;13.27;;;11.82;;
11046;SDS011;5576;50.008;10.596;2022-08-25T05:56:09;13.68;;;12.27;;
11046;SDS011;5576;50.008;10.596;2022-08-25T05:58:35;12.40;;;11.10;;
11046;SDS011;5576;50.008;10.596;2022-08-25T06:01:01;13.88;;;11.85;;
11046;SDS011;5576;50.008;10.596;2022-08-25T06:03:48;13.65;;;12.25;;
11046;SDS011;5576;50.008;10.596;2022-08-25T06:06:17;13.90;;;11.68;;
11046;SDS011;5576;50.008;10.596;2022-08-25T06:08:43;13.75;;;12.25;;
11046;SDS011;5576;50.008;10.596;2022-08-25T06:11:10;14.43;;;12.60;;
11046;SDS011;5576;50.008;10.596;2022-08-25T06:13:37;12.10;;;10.90;;
11046;SDS011;5576;50.008;10.596;2022-08-25T06:16:03;12.60;;;10.90;;
11046;SDS011;5576;50.008;10.596;2022-08-25T06:18:29;14.23;;;11.37;;
11046;SDS011;5576;50.008;10.596;2022-08-25T06:20:55;13.80;;;11.55;;
11046;SDS011;5576;50.008;10.596;2022-08-25T06:23:21;12.97;;;11.67;;
11046;SDS011;5576;50.008;10.596;2022-08-25T06:25:48;13.18;;;11.77;;
11046;SDS011;5576;50.008;10.596;2022-08-25T06:28:15;12.02;;;10.63;;
11046;SDS011;5576;50.008;10.596;2022-08-25T06:30:40;11.87;;;10.67;;
11046;SDS011;5576;50.008;10.596;2022-08-25T06:33:06;11.73;;;10.10;;
11046;SDS011;5576;50.008;10.596;2022-08-25T06:35:32;12.27;;;10.98;;
11046;SDS011;5576;50.008;10.596;2022-08-25T06:37:58;13.13;;;10.55;;
11046;SDS011;5576;50.008;10.596;2022-08-25T06:40:23;13.18;;;10.43;;
11046;SDS011;5576;50.008;10.596;2022-08-25T06:42:50;13.60;;;10.65;;
11046;SDS011;5576;50.008;10.596;2022-08-25T06:45:16;11.93;;;10.73;;
11046;SDS011;5576;50.008;10.596;2022-08-25T06:47:42;11.88;;;10.13;;
11046;SDS011;5576;50.008;10.596;2022-08-25T06:50:08;12.43;;;10.68;;
11046;SDS011;5576;50.008;10.596;2022-08-25T06:52:34;12.75;;;10.30;;
11046;SDS011;5576;50.008;10.596;2022-08-25T06:55:00;12.50;;;10.63;;
11046;SDS011;5576;50.008;10.596;2022-08-25T06:57:26;12.07;;;10.52;;
11046;SDS011;5576;50.008;10.596;2022-08-25T06:59:52;12.07;;;10.68;;
11046;SDS011;5576;50.008;10.596;2022-08-25T07:02:18;11.65;;;10.45;;
11046;SDS011;5576;50.008;10.596;2022-08-25T07:04:44;9.85;;;8.85;;
11046;SDS011;5576;50.008;10.596;2022-08-25T07:07:10;11.10;;;9.83;;
11046;SDS011;5576;50.008;10.596;2022-08-25T07:09:36;11.98;;;9.52;;
11046;SDS011;5576;50.008;10.596;2022-08-25T07:12:02;11.35;;;9.20;;
11046;SDS011;5576;50.008;10.596;2022-08-25T07:14:28;14.30;;;10.88;;
11046;SDS011;5576;50.008;10.596;2022-08-25T07:16:54;12.10;;;10.10;;
11046;SDS011;5576;50.008;10.596;2022-08-25T07:19:20;10.45;;;9.32;;
11046;SDS011;5576;50.008;10.596;2022-08-25T07:21:47;10.93;;;9.13;;
11046;SDS011;5576;50.008;10.596;2022-08-25T07:24:15;10.37;;;9.00;;
11046;SDS011;5576;50.008;10.596;2022-08-25T07:26:41;10.20;;;9.20;;
11046;SDS011;5576;50.008;10.596;2022-08-25T07:29:09;11.00;;;9.15;;
11046;SDS011;5576;50.008;10.596;2022-08-25T07:31:36;11.10;;;9.48;;
11046;SDS011;5576;50.008;10.596;2022-08-25T07:34:02;10.00;;;9.00;;
11046;SDS011;5576;50.008;10.596;2022-08-25T07:36:48;10.20;;;8.63;;
11046;SDS011;5576;50.008;10.596;2022-08-25T07:39:14;9.67;;;8.67;;
11046;SDS011;5576;50.008;10.596;2022-08-25T07:41:40;11.35;;;9.30;;
11046;SDS011;5576;50.008;10.596;2022-08-25T07:44:07;10.27;;;9.23;;
11046;SDS011;5576;50.008;10.596;2022-08-25T07:46:35;10.57;;;9.20;;
11046;SDS011;5576;50.008;10.596;2022-08-25T07:49:00;9.85;;;8.80;;
11046;SDS011;5576;50.008;10.596;2022-08-25T07:51:26;11.40;;;9.43;;
11046;SDS011;5576;50.008;10.596;2022-08-25T07:53:52;10.75;;;8.85;;
11046;SDS011;5576;50.008;10.596;2022-08-25T07:56:18;10.00;;;9.00;;
11046;SDS011;5576;50.008;10.596;2022-08-25T07:58:44;10.48;;;9.07;;
11046;SDS011;5576;50.008;10.596;2022-08-25T08:01:12;11.07;;;9.10;;
11046;SDS011;5576;50.008;10.596;2022-08-25T08:03:40;10.20;;;9.20;;
11046;SDS011;5576;50.008;10.596;2022-08-25T08:06:07;11.87;;;8.70;;
11046;SDS011;5576;50.008;10.596;2022-08-25T08:08:35;9.67;;;8.67;;
11046;SDS011;5576;50.008;10.596;2022-08-25T08:11:03;9.77;;;8.77;;
11046;SDS011;5576;50.008;10.596;2022-08-25T08:13:29;9.32;;;8.32;;
11046;SDS011;5576;50.008;10.596;2022-08-25T08:15:55;10.40;;;8.88;;
11046;SDS011;5576;50.008;10.596;2022-08-25T08:18:20;9.73;;;8.73;;
11046;SDS011;5576;50.008;10.596;2022-08-25T08:20:47;9.43;;;8.40;;
11046;SDS011;5576;50.008;10.596;2022-08-25T08:23:13;9.13;;;8.00;;
11046;SDS011;5576;50.008;10.596;2022-08-25T08:25:40;10.20;;;8.50;;
11046;SDS011;5576;50.008;10.596;2022-08-25T08:28:06;9.50;;;8.50;;
11046;SDS011;5576;50.008;10.596;2022-08-25T08:30:32;9.10;;;8.13;;
11046;SDS011;5576;50.008;10.596;2022-08-25T08:32:58;10.38;;;8.38;;
11046;SDS011;5576;50.008;10.596;2022-08-25T08:35:23;10.82;;;8.30;;
11046;SDS011;5576;50.008;10.596;2022-08-25T08:37:49;9.83;;;8.33;;
11046;SDS011;5576;50.008;10.596;2022-08-25T08:40:16;9.13;;;8.23;;
11046;SDS011;5576;50.008;10.596;2022-08-25T08:42:48;10.02;;;8.35;;
11046;SDS011;5576;50.008;10.596;2022-08-25T08:48:13;9.35;;;7.90;;
11046;SDS011;5576;50.008;10.596;2022-08-25T08:53:35;9.02;;;7.70;;
11046;SDS011;5576;50.008;10.596;2022-08-25T08:56:09;8.67;;;7.77;;
11046;SDS011;5576;50.008;10.596;2022-08-25T08:58:44;8.10;;;7.30;;
11046;SDS011;5576;50.008;10.596;2022-08-25T09:01:15;8.40;;;7.60;;
11046;SDS011;5576;50.008;10.596;2022-08-25T09:03:49;8.20;;;7.38;;
11046;SDS011;5576;50.008;10.596;2022-08-25T09:06:21;8.52;;;7.28;;
11046;SDS011;5576;50.008;10.596;2022-08-25T09:08:52;8.10;;;7.13;;
11046;SDS011;5576;50.008;10.596;2022-08-25T09:11:23;9.80;;;7.43;;
11046;SDS011;5576;50.008;10.596;2022-08-25T09:14:00;8.15;;;7.13;;
11046;SDS011;5576;50.008;10.596;2022-08-25T09:30:14;8.77;;;7.00;;
11046;SDS011;5576;50.008;10.596;2022-08-25T09:32:44;7.22;;;6.53;;
11046;SDS011;5576;50.008;10.596;2022-08-25T09:35:16;7.25;;;6.50;;
11046;SDS011;5576;50.008;10.596;2022-08-25T09:38:01;6.55;;;5.90;;
11046;SDS011;5576;50.008;10.596;2022-08-25T09:40:30;6.25;;;5.65;;
11046;SDS011;5576;50.008;10.596;2022-08-25T09:42:59;6.13;;;5.53;;
11046;SDS011;5576;50.008;10.596;2022-08-25T09:45:44;6.50;;;5.90;;
11046;SDS011;5576;50.008;10.596;2022-08-25T09:51:11;7.00;;;6.28;;
11046;SDS011;5576;50.008;10.596;2022-08-25T09:53:47;6.40;;;5.80;;
11046;SDS011;5576;50.008;10.596;2022-08-25T09:56:15;5.90;;;5.28;;
11046;SDS011;5576;50.008;10.596;2022-08-25T09:58:45;6.32;;;5.53;;
11046;SDS011;5576;50.008;10.596;2022-08-25T10:01:15;7.00;;;5.35;;
11046;SDS011;5576;50.008;10.596;2022-08-25T10:04:00;6.13;;;5.57;;
11046;SDS011;5576;50.008;10.596;2022-08-25T10:06:32;5.70;;;5.05;;
11046;SDS011;5576;50.008;10.596;2022-08-25T10:09:04;5.60;;;5.07;;
11046;SDS011;5576;50.008;10.596;2022-08-25T10:11:35;6.50;;;5.30;;
11046;SDS011;5576;50.008;10.596;2022-08-25T10:14:06;5.57;;;4.93;;
11046;SDS011;5576;50.008;10.596;2022-08-25T10:16:32;6.47;;;5.03;;
11046;SDS011;5576;50.008;10.596;2022-08-25T10:19:01;5.47;;;4.83;;
11046;SDS011;5576;50.008;10.596;2022-08-25T10:21:29;5.38;;;4.80;;
11046;SDS011;5576;50.008;10.596;2022-08-25T10:23:55;5.50;;;5.00;;
11046;SDS011;5576;50.008;10.596;2022-08-25T10:32:52;5.97;;;5.37;;
11046;SDS011;5576;50.008;10.596;2022-08-25T10:38:35;5.90;;;5.30;;
11046;SDS011;5576;50.008;10.596;2022-08-25T10:41:17;6.25;;;5.55;;
11046;SDS011;5576;50.008;10.596;2022-08-25T10:46:24;6.03;;;5.22;;
11046;SDS011;5576;50.008;10.596;2022-08-25T10:49:13;5.90;;;5.30;;
11046;SDS011;5576;50.008;10.596;2022-08-25T10:54:41;5.80;;;5.00;;
11046;SDS011;5576;50.008;10.596;2022-08-25T10:57:22;5.20;;;4.70;;
11046;SDS011;5576;50.008;10.596;2022-08-25T11:05:16;4.72;;;4.22;;
11046;SDS011;5576;50.008;10.596;2022-08-25T11:07:47;4.40;;;4.00;;
11046;SDS011;5576;50.008;10.596;2022-08-25T11:10:21;5.27;;;4.23;;
11046;SDS011;5576;50.008;10.596;2022-08-25T11:12:56;4.50;;;4.10;;
11046;SDS011;5576;50.008;10.596;2022-08-25T11:15:35;4.30;;;3.88;;
11046;SDS011;5576;50.008;10.596;2022-08-25T11:18:06;4.80;;;4.30;;
11046;SDS011;5576;50.008;10.596;2022-08-25T11:25:39;4.93;;;4.43;;
11046;SDS011;5576;50.008;10.596;2022-08-25T11:28:17;6.47;;;4.50;;
11046;SDS011;5576;50.008;10.596;2022-08-25T11:30:51;4.80;;;4.40;;
11046;SDS011;5576;50.008;10.596;2022-08-25T11:33:21;4.50;;;4.10;;
11046;SDS011;5576;50.008;10.596;2022-08-25T11:35:51;4.90;;;4.40;;
11046;SDS011;5576;50.008;10.596;2022-08-25T11:41:09;4.97;;;4.47;;
11046;SDS011;5576;50.008;10.596;2022-08-25T11:43:50;5.65;;;5.03;;
11046;SDS011;5576;50.008;10.596;2022-08-25T11:46:34;5.53;;;4.32;;
11046;SDS011;5576;50.008;10.596;2022-08-25T11:49:20;5.40;;;4.45;;
11046;SDS011;5576;50.008;10.596;2022-08-25T11:51:50;5.63;;;4.38;;
11046;SDS011;5576;50.008;10.596;2022-08-25T11:57:02;5.40;;;4.20;;
11046;SDS011;5576;50.008;10.596;2022-08-25T12:10:55;4.70;;;4.30;;
11046;SDS011;5576;50.008;10.596;2022-08-25T12:21:53;5.13;;;4.63;;
11046;SDS011;5576;50.008;10.596;2022-08-25T12:24:24;5.07;;;4.30;;
11046;SDS011;5576;50.008;10.596;2022-08-25T12:27:16;5.18;;;4.68;;
11046;SDS011;5576;50.008;10.596;2022-08-25T12:29:52;5.10;;;4.60;;
11046;SDS011;5576;50.008;10.596;2022-08-25T12:35:06;5.10;;;4.30;;
11046;SDS011;5576;50.008;10.596;2022-08-25T12:40:31;5.25;;;4.35;;
11046;SDS011;5576;50.008;10.596;2022-08-25T12:48:52;4.72;;;4.30;;
11046;SDS011;5576;50.008;10.596;2022-08-25T12:51:27;4.80;;;4.30;;
11046;SDS011;5576;50.008;10.596;2022-08-25T12:58:16;5.10;;;4.40;;
11046;SDS011;5576;50.008;10.596;2022-08-25T13:00:09;5.03;;;4.53;;
11046;SDS011;5576;50.008;10.596;2022-08-25T13:08:56;5.20;;;4.70;;
11046;SDS011;5576;50.008;10.596;2022-08-25T13:14:10;5.15;;;4.63;;
11046;SDS011;5576;50.008;10.596;2022-08-25T13:16:52;5.03;;;4.53;;
11046;SDS011;5576;50.008;10.596;2022-08-25T13:19:20;5.50;;;4.70;;
11046;SDS011;5576;50.008;10.596;2022-08-25T13:21:46;5.15;;;4.65;;
11046;SDS011;5576;50.008;10.596;2022-08-25T13:26:45;5.35;;;4.72;;
11046;SDS011;5576;50.008;10.596;2022-08-25T13:29:17;6.30;;;4.63;;
11046;SDS011;5576;50.008;10.596;2022-08-25T13:32:02;5.20;;;4.70;;
11046;SDS011;5576;50.008;10.596;2022-08-25T13:34:32;6.05;;;4.80;;
11046;SDS011;5576;50.008;10.596;2022-08-25T13:37:07;5.53;;;4.80;;
11046;SDS011;5576;50.008;10.596;2022-08-25T13:42:48;6.95;;;4.55;;
11046;SDS011;5576;50.008;10.596;2022-08-25T13:45:17;5.82;;;5.05;;
11046;SDS011;5576;50.008;10.596;2022-08-25T13:47:46;5.60;;;5.05;;
11046;SDS011;5576;50.008;10.596;2022-08-25T13:50:14;8.67;;;5.10;;
11046;SDS011;5576;50.008;10.596;2022-08-25T13:52:46;5.32;;;4.78;;
11046;SDS011;5576;50.008;10.596;2022-08-25T13:55:19;6.75;;;5.32;;
11046;SDS011;5576;50.008;10.596;2022-08-25T13:57:47;7.07;;;5.22;;
11046;SDS011;5576;50.008;10.596;2022-08-25T14:00:13;6.50;;;4.97;;
11046;SDS011;5576;50.008;10.596;2022-08-25T14:02:52;6.88;;;5.32;;
11046;SDS011;5576;50.008;10.596;2022-08-25T14:05:36;7.20;;;5.63;;
11046;SDS011;5576;50.008;10.596;2022-08-25T14:08:05;6.38;;;5.53;;
11046;SDS011;5576;50.008;10.596;2022-08-25T14:15:50;7.68;;;5.55;;
11046;SDS011;5576;50.008;10.596;2022-08-25T14:18:17;5.97;;;5.37;;
11046;SDS011;5576;50.008;10.596;2022-08-25T14:20:48;5.75;;;5.25;;
11046;SDS011;5576;50.008;10.596;2022-08-25T14:23:18;6.30;;;4.88;;
11046;SDS011;5576;50.008;10.596;2022-08-25T14:25:48;6.00;;;4.50;;
11046;SDS011;5576;50.008;10.596;2022-08-25T14:28:17;6.25;;;4.30;;
11046;SDS011;5576;50.008;10.596;2022-08-25T14:30:46;5.00;;;4.53;;
11046;SDS011;5576;50.008;10.596;2022-08-25T14:33:16;5.35;;;4.65;;
11046;SDS011;5576;50.008;10.596;2022-08-25T14:35:46;5.10;;;4.60;;
11046;SDS011;5576;50.008;10.596;2022-08-25T14:38:13;4.95;;;4.45;;
11046;SDS011;5576;50.008;10.596;2022-08-25T14:40:40;5.68;;;4.50;;
11046;SDS011;5576;50.008;10.596;2022-08-25T14:43:06;8.20;;;4.78;;
11046;SDS011;5576;50.008;10.596;2022-08-25T14:45:33;7.72;;;5.07;;
11046;SDS011;5576;50.008;10.596;2022-08-25T14:48:03;5.50;;;5.00;;
11046;SDS011;5576;50.008;10.596;2022-08-25T14:50:31;5.75;;;4.90;;
11046;SDS011;5576;50.008;10.596;2022-08-25T14:52:57;5.72;;;5.22;;
11046;SDS011;5576;50.008;10.596;2022-08-25T14:55:24;4.87;;;4.47;;
11046;SDS011;5576;50.008;10.596;2022-08-25T14:57:49;5.13;;;4.63;;
11046;SDS011;5576;50.008;10.596;2022-08-25T15:00:15;5.80;;;4.70;;
11046;SDS011;5576;50.008;10.596;2022-08-25T15:02:41;8.63;;;4.50;;
11046;SDS011;5576;50.008;10.596;2022-08-25T15:05:10;5.85;;;4.72;;
11046;SDS011;5576;50.008;10.596;2022-08-25T15:07:37;5.32;;;4.82;;
11046;SDS011;5576;50.008;10.596;2022-08-25T15:10:22;5.07;;;4.57;;
11046;SDS011;5576;50.008;10.596;2022-08-25T15:12:48;5.10;;;4.45;;
11046;SDS011;5576;50.008;10.596;2022-08-25T15:15:14;4.95;;;4.45;;
11046;SDS011;5576;50.008;10.596;2022-08-25T15:17:41;5.72;;;5.22;;
11046;SDS011;5576;50.008;10.596;2022-08-25T15:20:09;5.18;;;4.60;;
11046;SDS011;5576;50.008;10.596;2022-08-25T15:22:35;5.45;;;4.72;;
11046;SDS011;5576;50.008;10.596;2022-08-25T15:25:01;4.90;;;4.40;;
11046;SDS011;5576;50.008;10.596;2022-08-25T15:27:26;5.07;;;4.20;;
11046;SDS011;5576;50.008;10.596;2022-08-25T15:29:52;7.13;;;4.20;;
11046;SDS011;5576;50.008;10.596;2022-08-25T15:32:18;4.57;;;3.93;;
11046;SDS011;5576;50.008;10.596;2022-08-25T15:34:44;4.72;;;4.30;;
11046;SDS011;5576;50.008;10.596;2022-08-25T15:37:11;4.70;;;4.22;;
11046;SDS011;5576;50.008;10.596;2022-08-25T15:39:39;5.45;;;4.55;;
11046;SDS011;5576;50.008;10.596;2022-08-25T15:42:08;6.82;;;4.65;;
11046;SDS011;5576;50.008;10.596;2022-08-25T15:44:36;6.60;;;4.80;;
11046;SDS011;5576;50.008;10.596;2022-08-25T15:47:03;5.47;;;4.90;;
11046;SDS011;5576;50.008;10.596;2022-08-25T15:49:29;5.00;;;4.57;;
11046;SDS011;5576;50.008;10.596;2022-08-25T15:51:55;5.05;;;4.50;;
11046;SDS011;5576;50.008;10.596;2022-08-25T15:54:21;5.30;;;4.80;;
11046;SDS011;5576;50.008;10.596;2022-08-25T15:56:48;4.97;;;4.47;;
11046;SDS011;5576;50.008;10.596;2022-08-25T15:59:15;4.85;;;4.45;;
11046;SDS011;5576;50.008;10.596;2022-08-25T16:01:40;5.45;;;4.70;;
11046;SDS011;5576;50.008;10.596;2022-08-25T16:04:08;5.22;;;4.38;;
11046;SDS011;5576;50.008;10.596;2022-08-25T16:06:34;7.53;;;4.68;;
11046;SDS011;5576;50.008;10.596;2022-08-25T16:09:00;5.32;;;4.80;;
11046;SDS011;5576;50.008;10.596;2022-08-25T16:11:27;5.47;;;4.95;;
11046;SDS011;5576;50.008;10.596;2022-08-25T16:13:54;4.97;;;4.47;;
11046;SDS011;5576;50.008;10.596;2022-08-25T16:16:24;5.28;;;4.78;;
11046;SDS011;5576;50.008;10.596;2022-08-25T16:18:52;5.18;;;4.50;;
11046;SDS011;5576;50.008;10.596;2022-08-25T16:21:19;5.55;;;4.60;;
11046;SDS011;5576;50.008;10.596;2022-08-25T16:23:48;5.60;;;4.63;;
11046;SDS011;5576;50.008;10.596;2022-08-25T16:26:14;5.47;;;4.82;;
11046;SDS011;5576;50.008;10.596;2022-08-25T16:28:40;5.40;;;4.80;;
11046;SDS011;5576;50.008;10.596;2022-08-25T16:31:08;5.90;;;4.82;;
11046;SDS011;5576;50.008;10.596;2022-08-25T16:33:34;5.85;;;5.20;;
11046;SDS011;5576;50.008;10.596;2022-08-25T16:36:04;6.22;;;4.95;;
11046;SDS011;5576;50.008;10.596;2022-08-25T16:38:33;6.45;;;5.00;;
11046;SDS011;5576;50.008;10.596;2022-08-25T16:40:59;5.57;;;5.00;;
11046;SDS011;5576;50.008;10.596;2022-08-25T16:43:25;5.88;;;4.80;;